KBNA

Nashville International Airport

Nashville, Tennessee, USA
METAR KBNA 201853Z 31006KT 10SM FEW022 SCT250 18/08 A3004 RMK AO2 SLP170 T01830078
Observed Flight Rules
Oct-20 @ 18:53 UTC (an hour ago) Visual Flight Rules
Wind Visibility Clouds
310° at 6 knots 10 miles
  • Few at 2,200' AGL
  • Scattered at 25,000' AGL
Temperatures Readings
Current 18°C / 64°F
Dewpoint 8°C / 46°F
Humidity 52%
Altimeter 30.04" Hg
Pressure 1017 hPa
Elevation 210
METAR KBNA 201853Z 31006KT 10SM FEW022 SCT250 18/08 A3004 RMK AO2 SLP170 T01830078
Observed Flight Rules
Oct-20 @ 18:53 UTC
(an hour ago)
VFR
Wind Visibility
310° at 6 knots 10 miles
Clouds
  • Few at 2,200' AGL
  • Scattered at 25,000' AGL
Temperature Dewpoint
18°C / 64°F 8°C / 46°F
Humidity Altimeter Pressure
52% 30.04" Hg 1017 hPa